createdAt,value
2022-09-20T00:01:12.945Z,3.92
2022-09-20T00:03:44.713Z,4.00
2022-09-20T00:06:19.721Z,4.18
2022-09-20T00:08:46.891Z,3.53
2022-09-20T00:11:16.877Z,3.80
2022-09-20T00:13:45.294Z,3.72
2022-09-20T00:16:15.027Z,3.37
2022-09-20T00:18:41.918Z,3.75
2022-09-20T00:21:15.838Z,3.70
2022-09-20T00:23:42.337Z,3.47
2022-09-20T00:26:08.803Z,3.05
2022-09-20T00:28:35.218Z,3.57
2022-09-20T00:31:01.683Z,3.28
2022-09-20T00:33:46.807Z,3.45
2022-09-20T00:36:13.415Z,3.10
2022-09-20T00:38:39.832Z,3.50
2022-09-20T00:41:06.285Z,3.00
2022-09-20T00:43:46.442Z,3.22
2022-09-20T00:46:41.482Z,3.15
2022-09-20T00:49:21.653Z,3.00
2022-09-20T00:51:56.774Z,3.20
2022-09-20T00:54:25.403Z,2.97
2022-09-20T00:56:52.413Z,3.63
2022-09-20T00:59:25.395Z,4.15
2022-09-20T01:02:03.084Z,3.92
2022-09-20T01:04:30.397Z,3.72
2022-09-20T01:07:02.194Z,4.03
2022-09-20T01:09:29.039Z,4.22
2022-09-20T01:11:57.578Z,3.10
2022-09-20T01:14:26.471Z,3.33
2022-09-20T01:17:02.142Z,3.78
2022-09-20T01:19:39.986Z,3.20
2022-09-20T01:22:25.115Z,3.00
2022-09-20T01:25:09.394Z,3.15
2022-09-20T01:27:40.391Z,2.95
2022-09-20T01:30:13.761Z,3.33
2022-09-20T01:32:52.442Z,2.77
2022-09-20T01:35:21.379Z,2.78
2022-09-20T01:38:18.406Z,2.50
2022-09-20T01:41:15.084Z,2.33
2022-09-20T01:43:53.118Z,3.05
2022-09-20T01:46:32.914Z,2.70
2022-09-20T01:49:30.651Z,2.30
2022-09-20T01:52:06.150Z,2.72
2022-09-20T01:54:58.068Z,2.40
2022-09-20T01:58:07.190Z,2.42
2022-09-20T02:00:57.865Z,2.40
2022-09-20T02:03:49.022Z,2.50
2022-09-20T02:06:24.346Z,2.22
2022-09-20T02:09:14.458Z,2.58
2022-09-20T02:12:14.157Z,2.08
2022-09-20T02:14:53.539Z,1.53
2022-09-20T02:17:57.007Z,1.55
2022-09-20T02:20:44.051Z,1.45
2022-09-20T02:23:35.529Z,1.23
2022-09-20T02:26:32.242Z,1.13
2022-09-20T02:29:06.784Z,1.20
2022-09-20T02:32:10.733Z,1.25
2022-09-20T02:35:05.484Z,1.50
2022-09-20T02:37:50.166Z,1.30
2022-09-20T02:40:25.679Z,1.45
2022-09-20T02:43:07.575Z,1.00
2022-09-20T02:45:58.897Z,1.00
2022-09-20T02:48:38.449Z,1.10
2022-09-20T02:51:30.913Z,1.13
2022-09-20T02:54:08.209Z,1.30
2022-09-20T02:56:45.762Z,1.20
2022-09-20T02:59:33.407Z,1.25
2022-09-20T03:02:28.188Z,1.35
2022-09-20T03:05:14.405Z,1.33
2022-09-20T03:08:25.280Z,1.17
2022-09-20T03:11:18.591Z,1.67
2022-09-20T03:14:00.746Z,1.30
2022-09-20T03:16:58.735Z,1.63
2022-09-20T03:19:36.554Z,1.35
2022-09-20T03:22:24.023Z,1.55
2022-09-20T03:25:14.895Z,1.57
2022-09-20T03:28:03.779Z,1.50
2022-09-20T03:31:31.254Z,2.33
2022-09-20T03:34:22.213Z,2.40
2022-09-20T03:37:18.955Z,3.05
2022-09-20T03:40:07.569Z,3.60
2022-09-20T03:42:39.251Z,3.20
2022-09-20T03:45:14.666Z,3.70
2022-09-20T03:48:18.109Z,3.58
2022-09-20T03:51:20.394Z,3.47
2022-09-20T03:54:03.733Z,3.30
2022-09-20T03:56:38.942Z,2.50
2022-09-20T03:59:31.814Z,2.95
2022-09-20T04:02:21.864Z,3.00
2022-09-20T04:04:54.590Z,4.30
2022-09-20T04:07:33.357Z,5.03
2022-09-20T04:10:18.707Z,3.83
2022-09-20T04:13:22.761Z,3.92
2022-09-20T04:16:04.353Z,2.50
2022-09-20T04:18:49.707Z,3.22
2022-09-20T04:21:34.482Z,2.60
2022-09-20T04:24:04.567Z,1.75
2022-09-20T04:26:41.545Z,2.35
2022-09-20T04:29:34.087Z,2.03
2022-09-20T04:32:10.076Z,2.15
2022-09-20T04:35:04.400Z,2.23
2022-09-20T04:37:33.598Z,2.30
2022-09-20T04:40:21.080Z,3.97
2022-09-20T04:43:17.452Z,3.63
2022-09-20T04:46:03.062Z,2.97
2022-09-20T04:48:57.681Z,2.20
2022-09-20T04:51:36.826Z,2.95
2022-09-20T04:54:15.503Z,2.55
2022-09-20T04:56:44.782Z,3.05
2022-09-20T04:59:21.910Z,2.45
2022-09-20T05:01:59.902Z,3.33
2022-09-20T05:04:29.596Z,3.00
2022-09-20T05:07:15.232Z,4.03
2022-09-20T05:10:08.374Z,3.50
2022-09-20T05:12:54.602Z,3.15
2022-09-20T05:15:24.156Z,3.20
2022-09-20T05:18:15.370Z,4.00
2022-09-20T05:20:59.367Z,4.35
2022-09-20T05:23:50.914Z,3.13
2022-09-20T05:26:29.235Z,3.95
2022-09-20T05:29:26.790Z,3.00
2022-09-20T05:32:06.589Z,2.90
2022-09-20T05:34:44.619Z,3.42
2022-09-20T05:37:34.874Z,4.18
2022-09-20T05:40:46.277Z,3.63
2022-09-20T05:43:27.783Z,3.47
2022-09-20T05:46:03.307Z,2.92
2022-09-20T05:48:41.950Z,3.38
2022-09-20T05:51:31.647Z,3.13
2022-09-20T05:54:02.942Z,3.33
2022-09-20T05:57:02.895Z,3.40
2022-09-20T05:59:38.950Z,2.85
2022-09-20T06:02:17.794Z,2.88
2022-09-20T06:04:52.722Z,3.20
2022-09-20T06:07:29.077Z,2.95
2022-09-20T06:10:07.666Z,3.00
2022-09-20T06:12:54.738Z,2.90
2022-09-20T06:15:33.334Z,3.17
2022-09-20T06:18:21.973Z,3.33
2022-09-20T06:21:25.517Z,3.67
2022-09-20T06:23:58.538Z,3.53
2022-09-20T06:26:28.548Z,3.65
2022-09-20T06:29:00.592Z,3.65
2022-09-20T06:31:27.625Z,3.03
2022-09-20T06:34:00.502Z,2.85
2022-09-20T06:37:09.401Z,3.03
2022-09-20T06:40:29.650Z,2.92
2022-09-20T06:42:57.962Z,3.00
2022-09-20T06:45:24.418Z,2.85
2022-09-20T06:47:50.812Z,3.05
2022-09-20T06:50:18.115Z,2.87
2022-09-20T06:52:46.581Z,2.70
2022-09-20T06:55:23.319Z,3.33
2022-09-20T06:57:52.664Z,2.67
2022-09-20T07:00:19.653Z,3.38
2022-09-20T07:02:46.705Z,2.73
2022-09-20T07:05:17.898Z,3.03
2022-09-20T07:07:44.627Z,3.35
2022-09-20T07:10:12.089Z,2.83
2022-09-20T07:12:38.573Z,3.40
2022-09-20T07:15:06.248Z,2.63
2022-09-20T07:17:33.582Z,3.03
2022-09-20T07:20:00.552Z,3.10
2022-09-20T07:22:27.789Z,2.88
2022-09-20T07:24:54.169Z,3.38
2022-09-20T07:27:21.286Z,3.10
2022-09-20T07:29:47.754Z,3.30
2022-09-20T07:32:15.388Z,3.65
2022-09-20T07:34:41.829Z,3.30
2022-09-20T07:37:08.274Z,3.58
2022-09-20T07:39:34.670Z,3.77
2022-09-20T07:42:06.047Z,2.95
2022-09-20T07:44:32.468Z,3.00
2022-09-20T07:46:59.615Z,2.83
2022-09-20T07:49:28.669Z,3.45
2022-09-20T07:51:55.194Z,2.87
2022-09-20T07:54:21.645Z,3.17
2022-09-20T07:56:48.488Z,3.03
2022-09-20T07:59:15.274Z,2.90
2022-09-20T08:01:42.706Z,3.03
2022-09-20T08:04:10.351Z,2.67
2022-09-20T08:06:41.257Z,2.30
2022-09-20T08:09:11.083Z,2.60
2022-09-20T08:11:39.620Z,2.50
2022-09-20T08:14:08.111Z,2.60
2022-09-20T08:16:45.613Z,3.00
2022-09-20T08:19:18.341Z,2.40
2022-09-20T08:21:45.188Z,2.33
2022-09-20T08:24:11.683Z,2.22
2022-09-20T08:26:38.166Z,2.85
2022-09-20T08:29:08.528Z,2.43
2022-09-20T08:31:38.394Z,2.22
2022-09-20T08:34:06.972Z,2.28
2022-09-20T08:36:36.675Z,2.80
2022-09-20T08:42:12.433Z,2.13
2022-09-20T08:45:00.060Z,1.90
2022-09-20T08:47:31.191Z,1.90
2022-09-20T08:49:58.863Z,1.52
2022-09-20T08:52:37.442Z,2.10
2022-09-20T08:55:18.211Z,1.73
2022-09-20T08:57:49.235Z,1.50
2022-09-20T09:00:21.357Z,1.80
2022-09-20T09:02:51.614Z,1.55
2022-09-20T09:05:31.742Z,2.75
2022-09-20T09:08:00.730Z,2.03
2022-09-20T09:10:34.552Z,2.00
2022-09-20T09:13:01.199Z,1.70
2022-09-20T09:15:32.714Z,1.80
2022-09-20T09:17:59.370Z,1.30
2022-09-20T09:20:26.292Z,1.97
2022-09-20T09:23:05.128Z,1.65
2022-09-20T09:25:41.187Z,1.42
2022-09-20T09:28:07.540Z,1.60
2022-09-20T09:30:45.011Z,1.17
2022-09-20T09:33:15.746Z,1.50
2022-09-20T09:35:43.408Z,1.02
2022-09-20T09:38:24.124Z,1.10
2022-09-20T09:40:59.761Z,0.93
2022-09-20T09:43:32.164Z,1.35
2022-09-20T09:46:19.077Z,0.60
2022-09-20T09:48:49.990Z,0.93
2022-09-20T09:51:18.854Z,1.10
2022-09-20T09:53:47.430Z,1.00
2022-09-20T09:56:30.114Z,0.88
2022-09-20T09:59:33.664Z,1.20
2022-09-20T10:02:19.172Z,0.93
2022-09-20T10:05:03.152Z,1.00
2022-09-20T10:07:49.729Z,1.10
2022-09-20T10:10:32.396Z,0.80
2022-09-20T10:13:38.267Z,1.30
2022-09-20T10:16:25.220Z,0.73
2022-09-20T10:18:55.428Z,0.77
2022-09-20T10:21:56.965Z,0.77
2022-09-20T10:24:57.292Z,0.80
2022-09-20T10:27:38.885Z,0.60
2022-09-20T10:30:17.005Z,0.80
2022-09-20T10:33:03.653Z,0.90
2022-09-20T10:35:42.358Z,0.80
2022-09-20T10:38:21.688Z,1.00
2022-09-20T10:41:44.643Z,0.90
2022-09-20T10:44:20.107Z,1.42
2022-09-20T10:46:53.006Z,0.93
2022-09-20T10:49:36.864Z,0.95
2022-09-20T10:52:17.325Z,1.13
2022-09-20T10:55:06.320Z,0.50
2022-09-20T10:58:04.408Z,0.75
2022-09-20T11:01:02.494Z,1.00
2022-09-20T11:03:47.286Z,0.73
2022-09-20T11:06:22.026Z,0.80
2022-09-20T11:08:55.731Z,0.50
2022-09-20T11:11:32.849Z,0.80
2022-09-20T11:14:09.806Z,0.75
2022-09-20T11:16:57.835Z,0.95
2022-09-20T11:19:48.446Z,0.85
2022-09-20T11:22:32.519Z,0.60
2022-09-20T11:25:18.031Z,0.65
2022-09-20T11:27:53.185Z,1.00
2022-09-20T11:30:24.138Z,0.77
2022-09-20T11:33:00.548Z,0.73
2022-09-20T11:35:34.790Z,0.60
2022-09-20T11:38:17.425Z,0.98
2022-09-20T11:40:52.215Z,1.10
2022-09-20T11:43:19.826Z,0.63
2022-09-20T11:45:49.875Z,0.70
2022-09-20T11:48:29.666Z,0.80
2022-09-20T11:51:16.599Z,0.80
2022-09-20T11:53:47.837Z,1.10
2022-09-20T11:56:24.914Z,0.80
2022-09-20T11:58:57.795Z,1.00
2022-09-20T12:01:50.412Z,0.53
2022-09-20T12:04:34.760Z,0.65
2022-09-20T12:07:26.923Z,1.35
2022-09-20T12:10:02.932Z,0.82
2022-09-20T12:12:51.105Z,1.00
2022-09-20T12:15:31.459Z,0.93
2022-09-20T12:17:57.797Z,0.77
2022-09-20T12:20:53.301Z,1.23
2022-09-20T12:23:41.207Z,0.85
2022-09-20T12:26:10.721Z,0.70
2022-09-20T12:28:40.074Z,0.83
2022-09-20T12:31:18.963Z,0.88
2022-09-20T12:34:04.606Z,0.90
2022-09-20T12:36:36.107Z,0.60
2022-09-20T12:39:06.604Z,1.50
2022-09-20T12:41:53.941Z,2.30
2022-09-20T12:44:35.497Z,2.28
2022-09-20T12:47:08.350Z,1.92
2022-09-20T12:49:59.470Z,2.25
2022-09-20T12:52:49.345Z,1.50
2022-09-20T12:55:30.751Z,3.60
2022-09-20T12:58:15.291Z,2.13
2022-09-20T13:00:47.077Z,1.35
2022-09-20T13:03:37.894Z,1.75
2022-09-20T13:06:07.321Z,2.60
2022-09-20T13:08:47.961Z,1.37
2022-09-20T13:11:18.689Z,0.90
2022-09-20T13:13:50.206Z,0.93
2022-09-20T13:16:24.521Z,0.88
2022-09-20T13:19:05.664Z,0.70
2022-09-20T13:21:34.855Z,1.23
2022-09-20T13:24:02.319Z,0.88
2022-09-20T13:26:33.958Z,1.15
2022-09-20T13:29:02.305Z,1.27
2022-09-20T13:31:31.821Z,0.95
2022-09-20T13:34:25.841Z,3.47
2022-09-20T13:36:58.377Z,1.25
2022-09-20T13:39:36.202Z,1.23
2022-09-20T13:42:09.086Z,0.60
2022-09-20T13:44:37.258Z,1.00
2022-09-20T13:47:22.315Z,0.73
2022-09-20T13:49:49.231Z,0.30
2022-09-20T13:52:34.360Z,0.68
2022-09-20T13:55:19.162Z,1.58
2022-09-20T13:57:48.043Z,1.27
2022-09-20T14:00:15.690Z,1.63
2022-09-20T14:02:42.229Z,1.42
2022-09-20T14:05:17.063Z,1.13
2022-09-20T14:07:46.082Z,1.08
2022-09-20T14:10:37.054Z,1.20
2022-09-20T14:13:07.326Z,0.70
2022-09-20T14:15:37.621Z,1.10
2022-09-20T14:18:07.040Z,1.20
2022-09-20T14:20:34.423Z,1.10
2022-09-20T14:23:01.466Z,1.52
2022-09-20T14:25:28.399Z,1.17
2022-09-20T14:28:18.676Z,1.10
2022-09-20T14:30:47.469Z,0.95
2022-09-20T14:33:20.754Z,0.88
2022-09-20T14:35:50.257Z,1.20
2022-09-20T14:38:21.535Z,1.63
2022-09-20T14:40:49.088Z,0.85
2022-09-20T14:43:24.086Z,1.27
2022-09-20T14:45:59.146Z,1.25
2022-09-20T14:48:25.515Z,0.98
2022-09-20T14:51:11.008Z,1.03
2022-09-20T14:53:38.301Z,0.98
2022-09-20T14:56:04.899Z,1.17
2022-09-20T14:58:32.270Z,0.88
2022-09-20T15:01:15.495Z,0.93
2022-09-20T15:03:42.154Z,1.00
2022-09-20T15:06:13.549Z,0.80
2022-09-20T15:08:45.470Z,1.63
2022-09-20T15:11:14.801Z,1.20
2022-09-20T15:13:41.322Z,0.77
2022-09-20T15:16:08.334Z,0.90
2022-09-20T15:18:41.865Z,0.90
2022-09-20T15:21:10.757Z,1.17
2022-09-20T15:23:38.247Z,1.10
2022-09-20T15:26:05.836Z,1.30
2022-09-20T15:28:34.099Z,1.60
2022-09-20T15:31:00.584Z,0.82
2022-09-20T15:33:30.158Z,1.48
2022-09-20T15:35:56.571Z,1.48
2022-09-20T15:38:26.738Z,0.70
2022-09-20T15:40:53.303Z,0.73
2022-09-20T15:43:24.002Z,0.70
2022-09-20T15:45:55.354Z,0.75
2022-09-20T15:48:24.450Z,0.80
2022-09-20T15:51:02.429Z,1.15
2022-09-20T15:53:36.826Z,1.10
2022-09-20T15:56:12.994Z,1.10
2022-09-20T15:58:39.389Z,1.10
2022-09-20T16:01:08.131Z,1.20
2022-09-20T16:03:36.116Z,1.15
2022-09-20T16:06:05.812Z,1.30
2022-09-20T16:08:33.532Z,1.48
2022-09-20T16:11:00.447Z,1.30
2022-09-20T16:13:27.671Z,1.00
2022-09-20T16:15:59.440Z,1.67
2022-09-20T16:18:45.414Z,1.13
2022-09-20T16:21:14.186Z,1.70
2022-09-20T16:23:41.925Z,2.03
2022-09-20T16:26:12.852Z,1.92
2022-09-20T16:28:47.283Z,1.60
2022-09-20T16:31:40.786Z,1.37
2022-09-20T16:34:13.411Z,1.40
2022-09-20T16:36:44.369Z,1.60
2022-09-20T16:39:12.528Z,1.42
2022-09-20T16:41:39.557Z,1.50
2022-09-20T16:44:06.318Z,0.93
2022-09-20T16:46:37.098Z,1.15
2022-09-20T16:49:06.998Z,1.63
2022-09-20T16:51:35.913Z,1.90
2022-09-20T16:54:11.606Z,1.92
2022-09-20T16:56:39.906Z,1.80
2022-09-20T16:59:07.535Z,1.83
2022-09-20T17:01:36.690Z,2.25
2022-09-20T17:04:07.265Z,2.50
2022-09-20T17:06:36.327Z,2.30
2022-09-20T17:09:03.966Z,1.80
2022-09-20T17:11:32.840Z,1.40
2022-09-20T17:14:00.137Z,1.75
2022-09-20T17:16:32.242Z,2.05
2022-09-20T17:19:01.157Z,2.60
2022-09-20T17:21:29.339Z,3.07
2022-09-20T17:23:58.440Z,2.83
2022-09-20T17:26:26.071Z,1.95
2022-09-20T17:28:56.268Z,2.20
2022-09-20T17:31:25.347Z,2.30
2022-09-20T17:33:52.155Z,2.10
2022-09-20T17:36:21.445Z,2.33
2022-09-20T17:38:54.289Z,1.85
2022-09-20T17:41:21.777Z,5.43
2022-09-20T17:43:52.477Z,6.60
2022-09-20T17:46:22.779Z,5.97
2022-09-20T17:48:52.261Z,5.07
2022-09-20T17:51:19.916Z,5.57
2022-09-20T17:53:46.698Z,4.32
2022-09-20T17:56:14.014Z,4.13
2022-09-20T17:58:41.675Z,3.67
2022-09-20T18:01:12.896Z,2.67
2022-09-20T18:03:42.563Z,2.42
2022-09-20T18:06:22.368Z,3.33
2022-09-20T18:08:54.006Z,4.70
2022-09-20T18:11:24.953Z,6.23
2022-09-20T18:13:51.602Z,5.05
2022-09-20T18:16:18.420Z,5.30
2022-09-20T18:18:46.501Z,4.82
2022-09-20T18:21:21.625Z,3.53
2022-09-20T18:23:49.066Z,4.33
2022-09-20T18:26:26.917Z,3.75
2022-09-20T18:29:05.551Z,4.32
2022-09-20T18:31:43.184Z,2.33
2022-09-20T18:34:18.127Z,2.28
2022-09-20T18:36:48.417Z,2.80
2022-09-20T18:39:14.878Z,2.60
2022-09-20T18:41:42.758Z,3.40
2022-09-20T18:44:12.435Z,3.85
2022-09-20T18:46:40.592Z,3.50
2022-09-20T18:49:09.660Z,3.13
2022-09-20T18:51:39.760Z,3.38
2022-09-20T18:54:09.915Z,3.17
2022-09-20T18:56:39.285Z,3.25
2022-09-20T18:59:08.357Z,4.95
2022-09-20T19:01:44.937Z,6.10
2022-09-20T19:04:29.914Z,6.85
2022-09-20T19:07:21.116Z,7.65
2022-09-20T19:10:05.840Z,7.88
2022-09-20T19:12:54.469Z,8.38
2022-09-20T19:15:37.553Z,6.57
2022-09-20T19:18:44.662Z,6.82
2022-09-20T19:21:43.207Z,7.15
2022-09-20T19:24:18.277Z,7.20
2022-09-20T19:26:45.662Z,5.97
2022-09-20T19:29:21.767Z,6.43
2022-09-20T19:31:50.849Z,6.88
2022-09-20T19:34:23.117Z,6.40
2022-09-20T19:37:18.646Z,10.68
2022-09-20T19:40:36.488Z,8.50
2022-09-20T19:43:05.672Z,5.07
2022-09-20T19:45:56.764Z,3.75
2022-09-20T19:48:28.953Z,4.78
2022-09-20T19:50:57.362Z,5.25
2022-09-20T19:53:28.150Z,6.22
2022-09-20T19:56:03.494Z,5.90
2022-09-20T19:58:30.221Z,3.88
2022-09-20T20:00:58.357Z,2.47
2022-09-20T20:03:27.417Z,1.73
2022-09-20T20:06:07.854Z,1.98
2022-09-20T20:08:43.202Z,1.97
2022-09-20T20:11:21.086Z,1.88
2022-09-20T20:14:08.994Z,1.90
2022-09-20T20:16:54.280Z,1.63
2022-09-20T20:19:42.126Z,2.05
2022-09-20T20:22:14.162Z,2.33
2022-09-20T20:25:00.902Z,2.20
2022-09-20T20:27:28.446Z,2.58
2022-09-20T20:29:55.788Z,1.88
2022-09-20T20:32:22.513Z,2.97
2022-09-20T20:34:49.071Z,2.63
2022-09-20T20:37:16.116Z,2.92
2022-09-20T20:39:42.590Z,3.00
2022-09-20T20:42:11.937Z,3.40
2022-09-20T20:44:38.351Z,3.65
2022-09-20T20:47:06.370Z,4.10
2022-09-20T20:49:33.337Z,3.97
2022-09-20T20:52:04.299Z,4.57
2022-09-20T20:54:31.790Z,3.95
2022-09-20T20:56:59.152Z,3.97
2022-09-20T20:59:25.702Z,4.20
2022-09-20T21:01:52.156Z,4.07
2022-09-20T21:04:18.678Z,4.15
2022-09-20T21:06:45.113Z,4.53
2022-09-20T21:09:11.973Z,2.90
2022-09-20T21:11:44.152Z,2.97
2022-09-20T21:14:12.675Z,2.45
2022-09-20T21:16:45.069Z,2.83
2022-09-20T21:19:15.006Z,2.15
2022-09-20T21:21:43.206Z,2.33
2022-09-20T21:24:12.224Z,2.30
2022-09-20T21:26:40.067Z,2.80
2022-09-20T21:29:11.117Z,2.50
2022-09-20T21:31:39.992Z,2.08
2022-09-20T21:34:08.753Z,2.70
2022-09-20T21:36:36.276Z,2.30
2022-09-20T21:39:03.325Z,2.00
2022-09-20T21:41:32.153Z,2.63
2022-09-20T21:44:00.395Z,2.03
2022-09-20T21:46:32.576Z,2.03
2022-09-20T21:49:01.586Z,2.23
2022-09-20T21:51:31.158Z,1.83
2022-09-20T21:54:01.421Z,1.63
2022-09-20T21:56:33.663Z,2.40
2022-09-20T21:59:02.146Z,2.10
2022-09-20T22:01:30.319Z,1.83
2022-09-20T22:04:01.122Z,2.20
2022-09-20T22:06:33.718Z,2.63
2022-09-20T22:09:05.851Z,2.30
2022-09-20T22:11:36.023Z,2.60
2022-09-20T22:14:02.422Z,2.20
2022-09-20T22:16:33.352Z,2.28
2022-09-20T22:19:00.520Z,1.70
2022-09-20T22:21:34.355Z,1.90
2022-09-20T22:24:03.039Z,2.25
2022-09-20T22:26:32.469Z,2.10
2022-09-20T22:28:59.181Z,2.00
2022-09-20T22:31:28.554Z,1.98
2022-09-20T22:33:57.909Z,2.10
2022-09-20T22:36:26.771Z,2.28
2022-09-20T22:38:53.709Z,1.67
2022-09-20T22:41:21.035Z,1.83
2022-09-20T22:43:47.713Z,1.80
2022-09-20T22:46:20.392Z,1.95
2022-09-20T22:48:47.366Z,2.08
2022-09-20T22:51:16.711Z,1.87
2022-09-20T22:53:43.785Z,2.15
2022-09-20T22:56:13.469Z,2.03
2022-09-20T22:58:42.221Z,2.00
2022-09-20T23:01:10.616Z,1.85
2022-09-20T23:03:42.497Z,1.57
2022-09-20T23:06:17.732Z,2.05
2022-09-20T23:08:44.217Z,1.80
2022-09-20T23:11:10.909Z,1.63
2022-09-20T23:13:37.414Z,1.83
2022-09-20T23:16:15.581Z,1.93
2022-09-20T23:18:42.167Z,1.75
2022-09-20T23:21:08.668Z,1.55
2022-09-20T23:23:36.504Z,1.85
2022-09-20T23:26:07.392Z,1.70
2022-09-20T23:28:35.620Z,1.60
2022-09-20T23:31:08.010Z,1.77
2022-09-20T23:33:35.162Z,1.90
2022-09-20T23:36:03.483Z,2.10
2022-09-20T23:38:29.923Z,2.72
2022-09-20T23:41:01.405Z,2.63
2022-09-20T23:43:27.819Z,2.83
2022-09-20T23:45:54.314Z,3.10
2022-09-20T23:48:20.742Z,2.95
2022-09-20T23:50:47.161Z,2.92
2022-09-20T23:53:13.546Z,2.70
2022-09-20T23:55:39.987Z,2.40
2022-09-20T23:58:06.378Z,2.67
